Time;durP1;ratioP1;P1;durP2;ratioP2;P2;SDS_P1;SDS_P2;PMS_P1;PMS_P2;Temp;Humidity;BMP_temperature;BMP_pressure;BME280_temperature;BME280_humidity;BME280_pressure;Samples;Min_cycle;Max_cycle;Signal;HPM_P1;HPM_P2
2022/11/12 00:01:57;;;;;;;19.98;12.47;;;;;;;5.28;100.00;101002.22;1732237;82;21079;-70
2022/11/12 00:04:43;;;;;;;18.02;12.58;;;;;;;5.22;100.00;100999.80;1735249;82;21041;-70
2022/11/12 00:07:28;;;;;;;19.40;11.83;;;;;;;5.18;100.00;101005.30;1725231;82;21106;-70
2022/11/12 00:10:13;;;;;;;18.90;12.25;;;;;;;5.18;100.00;101009.34;1691896;84;21519;-71
2022/11/12 00:12:58;;;;;;;18.02;12.05;;;;;;;5.20;100.00;101005.94;1688754;83;21103;-72
2022/11/12 00:15:45;;;;;;;17.85;12.35;;;;;;;5.24;100.00;101009.06;1735087;82;21055;-69
2022/11/12 00:18:30;;;;;;;16.90;11.93;;;;;;;5.27;100.00;101008.64;1693137;82;21027;-70
2022/11/12 00:21:16;;;;;;;18.25;12.45;;;;;;;5.30;100.00;101006.36;1733165;82;20968;-70
2022/11/12 00:24:02;;;;;;;21.33;13.72;;;;;;;5.29;100.00;101002.50;1729932;82;21023;-70
2022/11/12 00:26:47;;;;;;;23.67;14.40;;;;;;;5.27;100.00;101004.59;1724266;81;21053;-71
2022/11/12 00:29:32;;;;;;;23.42;13.38;;;;;;;5.26;100.00;101001.06;1733353;82;20979;-70
2022/11/12 00:32:17;;;;;;;17.45;11.88;;;;;;;5.31;100.00;101000.45;1732213;81;21043;-70
2022/11/12 00:35:04;;;;;;;19.30;12.65;;;;;;;5.37;100.00;100999.09;1730550;82;20981;-71
2022/11/12 00:37:56;;;;;;;20.62;12.60;;;;;;;5.38;100.00;101000.77;1728462;81;21060;-70
2022/11/12 00:40:42;;;;;;;19.02;12.35;;;;;;;5.36;100.00;101007.39;1693065;83;21072;-71
2022/11/12 00:43:27;;;;;;;19.85;11.78;;;;;;;5.36;100.00;100996.08;1734910;82;21126;-71
2022/11/12 00:46:12;;;;;;;16.05;11.78;;;;;;;5.38;100.00;100999.42;1735931;82;21134;-71
2022/11/12 00:48:57;;;;;;;15.35;11.28;;;;;;;5.44;100.00;101005.33;1733271;82;21030;-71
2022/11/12 00:51:42;;;;;;;20.15;10.82;;;;;;;5.47;100.00;101002.20;1733848;81;21070;-71
2022/11/12 00:54:27;;;;;;;18.75;11.75;;;;;;;5.51;100.00;101004.81;1726992;82;21043;-70
2022/11/12 00:57:13;;;;;;;18.37;11.33;;;;;;;5.48;100.00;101003.05;1719933;82;21201;-70
2022/11/12 00:59:57;;;;;;;14.87;9.48;;;;;;;5.47;100.00;100999.51;1728972;82;21003;-70
2022/11/12 01:02:43;;;;;;;16.15;10.53;;;;;;;5.49;100.00;100999.31;1728688;81;21617;-71
2022/11/12 01:05:29;;;;;;;13.60;10.13;;;;;;;5.51;100.00;100998.57;1728208;82;21046;-70
2022/11/12 01:08:14;;;;;;;19.00;11.12;;;;;;;5.54;100.00;100995.45;1726821;81;21453;-70
2022/11/12 01:11:13;;;;;;;16.80;9.10;;;;;;;5.51;100.00;100986.41;1723946;82;21034;-70
2022/11/12 01:14:04;;;;;;;16.20;9.73;;;;;;;5.52;100.00;100988.09;1725696;82;21630;-70
2022/11/12 01:16:49;;;;;;;15.13;10.78;;;;;;;5.52;100.00;100990.79;1735009;81;21125;-70
2022/11/12 01:19:36;;;;;;;15.98;9.75;;;;;;;5.53;100.00;100993.27;1731152;82;21091;-71
2022/11/12 01:22:20;;;;;;;15.70;10.35;;;;;;;5.51;100.00;100994.00;1721615;81;21126;-70
2022/11/12 01:25:06;;;;;;;16.50;10.65;;;;;;;5.41;100.00;100997.65;1724262;82;21479;-70
2022/11/12 01:27:52;;;;;;;13.72;9.90;;;;;;;5.38;100.00;100995.37;1725586;82;21177;-70
2022/11/12 01:30:38;;;;;;;18.37;10.90;;;;;;;5.35;100.00;100993.60;1731438;82;21043;-70
2022/11/12 01:33:22;;;;;;;28.30;16.30;;;;;;;5.31;100.00;100999.09;1725797;82;21093;-70
2022/11/12 01:36:08;;;;;;;30.77;19.00;;;;;;;5.30;100.00;100996.91;1723752;81;21027;-70
2022/11/12 01:38:54;;;;;;;32.05;18.60;;;;;;;5.32;100.00;100993.47;1716148;82;21059;-70
2022/11/12 01:41:40;;;;;;;24.85;15.50;;;;;;;5.33;100.00;100998.36;1729175;82;21067;-70
2022/11/12 01:44:28;;;;;;;23.00;13.65;;;;;;;5.36;100.00;100992.53;1734887;82;21027;-70
2022/11/12 01:47:20;;;;;;;19.32;10.58;;;;;;;5.40;100.00;100997.84;1717725;82;21996;-71
2022/11/12 01:50:23;;;;;;;19.73;11.28;;;;;;;5.42;100.00;100995.23;1725226;82;21029;-71
2022/11/12 01:53:09;;;;;;;18.55;11.85;;;;;;;5.43;100.00;100997.42;1713073;82;21095;-71
2022/11/12 01:55:54;;;;;;;21.70;12.85;;;;;;;5.44;100.00;100988.29;1703668;83;21078;-70
2022/11/12 01:58:39;;;;;;;19.52;13.38;;;;;;;5.45;100.00;100996.20;1699091;83;21063;-70
2022/11/12 02:01:25;;;;;;;19.30;11.80;;;;;;;5.51;100.00;101001.27;1682448;83;21224;-71
2022/11/12 02:04:10;;;;;;;16.32;10.98;;;;;;;5.57;100.00;101003.13;1703478;83;21711;-71
2022/11/12 02:06:56;;;;;;;14.40;9.80;;;;;;;5.61;100.00;101003.03;1653319;85;21086;-70
2022/11/12 02:09:41;;;;;;;17.85;11.20;;;;;;;5.63;100.00;100994.73;1658436;85;21082;-70
2022/11/12 02:15:29;;;;;;;20.15;9.30;;;;;;;5.62;100.00;100992.55;1695122;83;21391;-72
2022/11/12 02:18:14;;;;;;;17.85;9.98;;;;;;;5.69;100.00;100981.73;1706873;81;21646;-70
2022/11/12 02:21:07;;;;;;;14.03;9.13;;;;;;;5.76;100.00;100972.58;1702667;83;21045;-70
2022/11/12 02:24:03;;;;;;;15.05;9.70;;;;;;;5.81;100.00;100964.65;1698165;83;21077;-70
2022/11/12 02:26:51;;;;;;;16.70;10.13;;;;;;;5.81;100.00;100973.30;1699855;82;21538;-70
2022/11/12 02:29:45;;;;;;;16.93;9.08;;;;;;;5.77;100.00;100970.70;1691454;83;21043;-71
2022/11/12 02:32:24;;;;;;;14.53;8.63;;;;;;;5.78;100.00;100974.53;1695029;83;21154;-71
2022/11/12 02:35:09;;;;;;;15.18;9.33;;;;;;;5.81;100.00;100978.70;1701002;83;21051;-71
2022/11/12 02:37:53;;;;;;;14.80;8.85;;;;;;;5.82;100.00;100977.64;1703304;83;21118;-71
2022/11/12 02:40:38;;;;;;;13.93;9.65;;;;;;;5.81;100.00;100980.86;1709501;83;21010;-71
2022/11/12 02:43:23;;;;;;;17.52;9.85;;;;;;;5.77;100.00;100980.17;1694599;83;21063;-71
2022/11/12 02:46:07;;;;;;;15.32;9.93;;;;;;;5.69;100.00;100981.73;1700828;82;21553;-70
2022/11/12 02:48:52;;;;;;;14.30;9.03;;;;;;;5.68;100.00;100982.76;1711798;83;21046;-69
2022/11/12 02:51:37;;;;;;;16.60;9.33;;;;;;;5.70;100.00;100982.05;1705170;81;21122;-70
2022/11/12 02:54:22;;;;;;;14.93;9.53;;;;;;;5.70;100.00;100991.50;1719704;82;21114;-70
2022/11/12 02:57:07;;;;;;;19.27;10.13;;;;;;;5.69;100.00;100987.13;1729850;82;21087;-70
2022/11/12 02:59:53;;;;;;;12.90;8.63;;;;;;;5.64;100.00;100980.16;1725109;82;21442;-70
2022/11/12 03:02:57;;;;;;;14.25;8.90;;;;;;;5.63;100.00;100979.87;1733189;82;21054;-71
2022/11/12 03:05:33;;;;;;;16.07;9.05;;;;;;;5.66;100.00;100974.88;1726376;82;21031;-71
2022/11/12 03:08:18;;;;;;;15.60;9.25;;;;;;;5.68;100.00;100976.84;1720379;82;21561;-71
2022/11/12 03:11:08;;;;;;;15.40;9.28;;;;;;;5.70;100.00;100984.75;1727190;82;20991;-71
2022/11/12 03:13:53;;;;;;;14.50;8.95;;;;;;;5.63;100.00;100975.82;1728143;82;21110;-70
2022/11/12 03:16:39;;;;;;;16.37;9.53;;;;;;;5.63;100.00;100972.60;1726787;82;21114;-70
2022/11/12 03:19:23;;;;;;;15.85;9.03;;;;;;;5.71;100.00;100975.06;1734671;82;21034;-70
2022/11/12 03:22:08;;;;;;;15.28;9.85;;;;;;;5.79;100.00;100977.55;1726804;82;21110;-70
2022/11/12 03:24:53;;;;;;;13.78;8.58;;;;;;;5.84;100.00;100985.04;1727374;82;21009;-71
2022/11/12 03:27:38;;;;;;;15.03;9.10;;;;;;;5.91;100.00;100988.59;1729232;82;21149;-71
2022/11/12 03:30:29;;;;;;;15.90;10.08;;;;;;;5.99;100.00;100985.64;1726081;82;21030;-71
2022/11/12 03:33:14;;;;;;;13.95;9.20;;;;;;;6.05;100.00;100983.47;1725804;81;21087;-71
2022/11/12 03:35:59;;;;;;;14.98;9.83;;;;;;;6.11;100.00;100985.83;1727236;82;21031;-70
2022/11/12 03:38:44;;;;;;;17.12;9.43;;;;;;;6.14;100.00;100986.23;1722584;82;21105;-71
2022/11/12 03:41:29;;;;;;;14.98;9.30;;;;;;;6.19;100.00;100987.79;1725315;82;21174;-71
2022/11/12 03:44:15;;;;;;;17.35;8.73;;;;;;;6.27;100.00;100984.02;1729788;82;21066;-70
2022/11/12 03:46:59;;;;;;;12.47;8.28;;;;;;;6.34;100.00;100976.72;1726269;82;21109;-70
2022/11/12 03:49:45;;;;;;;14.63;8.90;;;;;;;6.33;100.00;100988.58;1727722;82;21640;-70
2022/11/12 03:52:30;;;;;;;13.75;9.23;;;;;;;6.27;100.00;100986.18;1727018;82;21087;-71
2022/11/12 03:55:17;;;;;;;16.10;9.65;;;;;;;6.27;100.00;100978.62;1723436;82;21113;-70
2022/11/12 03:58:02;;;;;;;13.03;8.60;;;;;;;6.34;100.00;100982.13;1732319;82;21648;-71
2022/11/12 04:00:47;;;;;;;18.20;10.35;;;;;;;6.37;100.00;100987.11;1734828;82;21072;-70
2022/11/12 04:03:32;;;;;;;13.75;9.00;;;;;;;6.35;100.00;100978.36;1728119;82;21070;-70
2022/11/12 04:09:21;;;;;;;14.87;9.10;;;;;;;6.47;100.00;100978.00;1726058;82;21083;-70
2022/11/12 04:13:26;;;;;;;13.65;8.90;;;;;;;6.55;100.00;100971.52;1727217;81;21063;-71
2022/11/12 04:14:52;;;;;;;17.20;10.58;;;;;;;6.57;100.00;100977.54;1730719;82;21086;-71
2022/11/12 04:23:33;;;;;;;16.15;9.43;;;;;;;6.56;100.00;100970.45;1670908;84;21130;-70
2022/11/12 04:26:24;;;;;;;16.90;9.33;;;;;;;6.59;100.00;100965.45;1726411;82;21027;-71
2022/11/12 04:32:14;;;;;;;17.45;10.75;;;;;;;6.53;100.00;100975.78;1725376;81;21086;-70
2022/11/12 04:34:59;;;;;;;14.78;9.85;;;;;;;6.57;100.00;100985.66;1719652;82;21882;-70
2022/11/12 04:37:45;;;;;;;15.88;9.48;;;;;;;6.64;100.00;100979.69;1734317;82;21098;-71
2022/11/12 04:46:39;;;;;;;18.37;10.10;;;;;;;6.66;100.00;100974.91;1728453;81;21707;-71
2022/11/12 04:49:24;;;;;;;15.78;9.70;;;;;;;6.63;100.00;100981.56;1725263;82;21085;-71
2022/11/12 06:04:15;;;;;;;39.03;25.32;;;;;;;5.47;100.00;100996.80;1753785;79;23842;-73
2022/11/12 06:07:02;;;;;;;35.28;21.95;;;;;;;5.53;100.00;101011.88;1715536;83;21113;-73
2022/11/12 06:09:58;;;;;;;;;;;;;;;5.70;100.00;101019.87;1733544;83;21161;-74
2022/11/12 06:12:45;;;;;;;42.15;19.10;;;;;;;5.88;100.00;101014.69;1659498;82;72583;-73
2022/11/12 06:15:32;;;;;;;20.05;13.35;;;;;;;5.96;100.00;101013.93;1723110;83;21122;-73
2022/11/12 06:18:17;;;;;;;20.75;13.10;;;;;;;6.10;100.00;101013.37;1717039;82;21120;-74
2022/11/12 06:21:23;;;;;;;21.42;12.53;;;;;;;6.21;100.00;101008.67;1696070;83;21062;-74
2022/11/12 06:24:09;;;;;;;24.82;14.80;;;;;;;6.35;100.00;101013.00;1687618;83;21146;-74
2022/11/12 06:26:54;;;;;;;29.67;17.48;;;;;;;6.49;100.00;101007.84;1698877;83;21062;-73
2022/11/12 06:29:39;;;;;;;25.85;16.12;;;;;;;6.60;100.00;101009.57;1694727;83;21125;-73
2022/11/12 06:32:24;;;;;;;23.32;14.35;;;;;;;6.72;100.00;101006.50;1693830;83;21102;-72
2022/11/12 06:35:10;;;;;;;18.05;11.97;;;;;;;6.87;100.00;101009.22;1698290;83;21145;-73
2022/11/12 06:37:55;;;;;;;20.45;13.88;;;;;;;7.06;100.00;101011.51;1675624;84;21027;-74
2022/11/12 06:40:41;;;;;;;22.75;14.98;;;;;;;7.21;100.00;101005.27;1698074;83;21082;-74
2022/11/12 06:43:28;;;;;;;23.60;15.78;;;;;;;7.35;100.00;101007.36;1695953;84;21429;-74
2022/11/12 06:46:15;;;;;;;24.12;14.13;;;;;;;7.53;100.00;100991.69;1700307;83;21018;-75
2022/11/12 06:48:59;;;;;;;24.05;14.28;;;;;;;7.70;100.00;100986.84;1696680;83;21086;-74
2022/11/12 06:51:44;;;;;;;20.48;14.13;;;;;;;7.81;100.00;100985.28;1699592;83;21069;-74
2022/11/12 06:54:29;;;;;;;26.17;16.57;;;;;;;7.87;100.00;100979.78;1696894;83;21069;-73
2022/11/12 06:57:14;;;;;;;20.50;13.80;;;;;;;8.04;100.00;100980.05;1672795;84;21039;-73
2022/11/12 06:59:59;;;;;;;22.35;14.68;;;;;;;8.17;100.00;100976.34;1717159;83;21053;-74
2022/11/12 07:02:44;;;;;;;20.32;14.80;;;;;;;8.23;100.00;100978.98;1720273;83;21062;-74
2022/11/12 07:05:30;;;;;;;20.70;13.58;;;;;;;8.36;100.00;100971.27;1695010;83;21574;-76
2022/11/12 07:08:15;;;;;;;21.30;13.95;;;;;;;8.52;100.00;100977.94;1697743;83;21631;-74
2022/11/12 07:10:59;;;;;;;18.55;13.45;;;;;;;8.65;100.00;100970.45;1705373;83;21110;-74
2022/11/12 07:13:45;;;;;;;21.35;13.58;;;;;;;8.71;100.00;100961.41;1669079;84;21171;-74
2022/11/12 07:16:29;;;;;;;19.15;13.48;;;;;;;8.76;100.00;100961.53;1644329;85;21084;-74
2022/11/12 07:19:15;;;;;;;19.95;13.03;;;;;;;8.89;100.00;100959.17;1674239;85;21698;-73
2022/11/12 07:22:00;;;;;;;22.32;13.98;;;;;;;8.98;100.00;100949.09;1680977;85;21546;-73
2022/11/12 07:24:46;;;;;;;19.42;14.05;;;;;;;9.01;100.00;100951.87;1665042;85;21163;-74
2022/11/12 07:27:31;;;;;;;21.15;13.72;;;;;;;8.95;100.00;100950.92;1660940;85;21118;-74
2022/11/12 07:30:16;;;;;;;22.17;13.78;;;;;;;8.95;100.00;100946.85;1657830;86;21444;-74
2022/11/12 07:33:01;;;;;;;19.73;13.72;;;;;;;9.02;100.00;100946.75;1659096;85;21063;-74
2022/11/12 07:35:46;;;;;;;22.67;15.08;;;;;;;9.11;100.00;100948.58;1639788;86;21204;-73
2022/11/12 07:38:34;;;;;;;23.27;14.55;;;;;;;9.18;100.00;100950.14;1665419;86;21147;-74
2022/11/12 07:41:22;;;;;;;20.10;14.28;;;;;;;9.24;100.00;100938.36;1647123;85;21079;-74
2022/11/12 07:44:07;;;;;;;24.15;15.72;;;;;;;9.37;100.00;100940.84;1675490;85;21071;-73
2022/11/12 07:46:52;;;;;;;28.85;18.37;;;;;;;9.46;100.00;100948.11;1666517;86;21108;-73
2022/11/12 07:49:37;;;;;;;22.75;15.45;;;;;;;9.53;100.00;100944.74;1669031;85;21095;-74
2022/11/12 07:52:22;;;;;;;20.68;14.00;;;;;;;9.62;100.00;100946.59;1668578;85;21060;-74
2022/11/12 07:55:08;;;;;;;20.80;13.68;;;;;;;9.68;100.00;100933.41;1666900;85;21158;-74
2022/11/12 07:57:53;;;;;;;20.72;13.85;;;;;;;9.70;100.00;100943.00;1641167;86;21088;-75
2022/11/12 08:00:38;;;;;;;19.25;13.88;;;;;;;9.87;100.00;100939.84;1671303;85;21197;-74
2022/11/12 08:03:24;;;;;;;17.85;13.48;;;;;;;9.97;100.00;100945.52;1655304;85;21140;-76
2022/11/12 08:06:11;;;;;;;22.42;15.48;;;;;;;10.09;100.00;100952.83;1670940;85;21139;-75
2022/11/12 08:08:58;;;;;;;21.95;14.68;;;;;;;10.18;100.00;100952.78;1661669;85;21664;-73
2022/11/12 08:11:43;;;;;;;25.47;16.20;;;;;;;10.26;100.00;100965.49;1674212;83;21058;-72
2022/11/12 08:14:29;;;;;;;22.20;15.83;;;;;;;10.42;100.00;100947.56;1690487;82;21082;-75
2022/11/12 08:17:14;;;;;;;22.45;15.93;;;;;;;10.56;100.00;100948.94;1685220;84;21634;-73
2022/11/12 08:19:59;;;;;;;22.98;15.30;;;;;;;10.73;100.00;100944.92;1678219;83;21142;-75
2022/11/12 08:22:44;;;;;;;22.37;15.48;;;;;;;10.91;100.00;100948.25;1685046;84;21130;-75
2022/11/12 08:25:29;;;;;;;20.85;14.95;;;;;;;11.05;100.00;100954.24;1687924;83;21545;-73
2022/11/12 08:28:14;;;;;;;23.45;15.65;;;;;;;11.09;100.00;100947.20;1691658;83;21098;-74
2022/11/12 08:31:05;;;;;;;22.17;14.53;;;;;;;11.05;100.00;100956.14;1689465;83;21082;-74
2022/11/12 08:33:50;;;;;;;22.58;14.47;;;;;;;11.09;100.00;100949.93;1694694;82;21098;-73
2022/11/12 08:36:38;;;;;;;19.70;14.15;;;;;;;11.15;100.00;100945.41;1692792;83;21173;-73
2022/11/12 08:39:23;;;;;;;21.02;14.90;;;;;;;11.09;100.00;100949.13;1686931;83;21460;-74
2022/11/12 08:42:08;;;;;;;18.75;14.18;;;;;;;11.06;100.00;100944.98;1689813;83;21518;-74
2022/11/12 08:44:53;;;;;;;22.48;15.80;;;;;;;11.07;100.00;100947.17;1681146;83;21114;-73
2022/11/12 08:47:38;;;;;;;19.30;13.80;;;;;;;11.06;100.00;100949.06;1686153;83;21078;-74
2022/11/12 08:50:23;;;;;;;20.50;14.13;;;;;;;11.03;100.00;100948.20;1689252;83;21047;-73
2022/11/12 08:53:11;;;;;;;18.73;13.55;;;;;;;11.00;100.00;100947.33;1691601;83;21464;-73
2022/11/12 08:55:56;;;;;;;;;;;;;;;11.05;100.00;100946.60;1703478;83;21617;-73
2022/11/12 08:58:41;;;;;;;21.27;13.72;;;;;;;11.09;100.00;100934.94;1684136;83;20142;-74
2022/11/12 09:01:26;;;;;;;21.17;12.85;;;;;;;10.94;100.00;100934.16;1685776;84;21103;-74
2022/11/12 09:04:11;;;;;;;19.05;12.75;;;;;;;10.93;100.00;100939.31;1664295;83;21070;-73
2022/11/12 09:06:57;;;;;;;17.73;12.53;;;;;;;10.96;100.00;100933.37;1682826;83;21605;-74
2022/11/12 09:09:42;;;;;;;16.62;11.80;;;;;;;10.92;100.00;100924.03;1689407;82;21065;-74
2022/11/12 09:12:27;;;;;;;17.87;12.85;;;;;;;10.89;100.00;100926.42;1682968;83;21090;-73
2022/11/12 09:15:11;;;;;;;17.50;12.60;;;;;;;10.91;100.00;100925.09;1686970;83;21026;-74
2022/11/12 09:18:01;;;;;;;18.77;12.53;;;;;;;10.87;100.00;100923.12;1686497;83;21151;-73
2022/11/12 09:20:47;;;;;;;17.85;12.33;;;;;;;10.84;100.00;100917.61;1685027;83;21069;-73
2022/11/12 09:23:33;;;;;;;19.10;12.95;;;;;;;10.91;100.00;100921.57;1677608;83;21106;-74
2022/11/12 09:26:19;;;;;;;;;;;;;;;10.93;100.00;100917.52;1685583;83;21066;-74
2022/11/12 09:29:04;;;;;;;18.77;12.65;;;;;;;11.01;100.00;100919.02;1685215;84;20182;-74
2022/11/12 09:31:49;;;;;;;19.02;13.90;;;;;;;11.12;100.00;100918.66;1661755;85;21102;-74
2022/11/12 09:34:35;;;;;;;20.60;12.82;;;;;;;11.18;100.00;100913.05;1650948;85;21106;-74
2022/11/12 09:37:20;;;;;;;23.15;12.98;;;;;;;11.32;100.00;100916.26;1668477;84;22344;-75
2022/11/12 09:40:07;;;;;;;20.23;11.88;;;;;;;11.54;100.00;100911.71;1673299;85;21168;-75
2022/11/12 09:42:52;;;;;;;17.10;11.30;;;;;;;11.65;100.00;100906.70;1678169;84;21039;-75
2022/11/12 09:45:37;;;;;;;15.18;10.93;;;;;;;11.79;100.00;100905.83;1670511;84;21558;-75
2022/11/12 09:48:29;;;;;;;18.35;11.90;;;;;;;11.98;100.00;100904.44;1684428;83;21148;-75
2022/11/12 09:51:22;;;;;;;20.85;11.35;;;;;;;12.11;100.00;100915.01;1667408;85;21663;-73
2022/11/12 09:54:21;;;;;;;20.57;11.88;;;;;;;12.17;100.00;100910.42;1684778;84;21117;-73
2022/11/12 09:57:13;;;;;;;15.32;10.93;;;;;;;12.22;100.00;100903.11;1664828;84;21067;-73
2022/11/12 09:59:58;;;;;;;15.88;11.20;;;;;;;12.29;100.00;100896.92;1691734;83;21070;-73
2022/11/12 10:03:00;;;;;;;16.77;10.75;;;;;;;12.34;100.00;100900.26;1674538;83;21598;-73
2022/11/12 10:05:53;;;;;;;16.95;10.65;;;;;;;12.36;100.00;100900.28;1685010;85;21051;-73
2022/11/12 10:08:47;;;;;;;19.27;12.33;;;;;;;12.45;100.00;100902.86;1685131;83;21661;-73
2022/11/12 10:18:53;;;;;;;16.73;11.50;;;;;;;12.36;100.00;100898.12;1678624;83;21724;-74
2022/11/12 10:22:09;;;;;;;19.45;11.80;;;;;;;12.42;100.00;100899.28;1684650;85;21138;-73
2022/11/12 10:24:54;;;;;;;18.87;12.18;;;;;;;12.47;100.00;100890.30;1680455;85;21581;-73
2022/11/12 10:27:40;;;;;;;16.73;10.58;;;;;;;12.42;100.00;100892.98;1684092;84;21062;-73
2022/11/12 10:30:27;;;;;;;18.70;12.07;;;;;;;12.37;100.00;100891.02;1678679;85;21672;-73
2022/11/12 10:33:15;;;;;;;19.07;11.85;;;;;;;12.32;100.00;100884.15;1682520;84;21640;-72
2022/11/12 10:36:30;;;;;;;19.00;12.00;;;;;;;12.25;100.00;100888.16;1678496;84;21052;-73
2022/11/12 10:39:41;;;;;;;17.73;12.10;;;;;;;12.16;100.00;100885.56;1682074;84;22383;-73
2022/11/12 10:42:26;;;;;;;18.85;12.50;;;;;;;12.09;100.00;100884.39;1683321;84;21103;-73
2022/11/12 10:45:19;;;;;;;19.37;11.12;;;;;;;12.14;100.00;100880.91;1684241;83;21090;-74
2022/11/12 10:48:06;;;;;;;20.52;12.13;;;;;;;12.21;100.00;100867.90;1688599;83;21099;-74
2022/11/12 10:50:51;;;;;;;15.28;11.73;;;;;;;12.37;100.00;100862.88;1685483;83;21118;-74
2022/11/12 10:53:38;;;;;;;17.65;12.15;;;;;;;12.59;100.00;100867.77;1685750;83;21174;-74
2022/11/12 10:56:30;;;;;;;17.12;11.90;;;;;;;12.76;100.00;100864.92;1671683;83;21107;-77
2022/11/12 10:59:20;;;;;;;18.95;10.90;;;;;;;12.87;100.00;100850.27;1683776;83;21102;-74
2022/11/12 11:02:17;;;;;;;19.80;11.40;;;;;;;12.91;100.00;100844.04;1681297;84;21130;-74
2022/11/12 11:05:30;;;;;;;17.17;11.57;;;;;;;13.14;100.00;100833.87;1682956;83;21085;-75
2022/11/12 11:08:16;;;;;;;15.78;11.10;;;;;;;13.37;100.00;100835.67;1684514;84;21113;-75
2022/11/12 11:11:24;;;;;;;16.48;12.30;;;;;;;13.54;100.00;100826.45;1650100;84;21118;-75
2022/11/12 11:14:26;;;;;;;17.37;10.98;;;;;;;13.69;100.00;100823.81;1685043;83;21117;-74
2022/11/12 11:17:17;;;;;;;16.90;11.18;;;;;;;13.87;100.00;100822.81;1682622;84;21082;-75
2022/11/12 11:20:14;;;;;;;16.00;10.20;;;;;;;13.92;100.00;100820.66;1687787;83;21131;-75
2022/11/12 11:23:15;;;;;;;16.20;10.93;;;;;;;13.77;100.00;100814.56;1683692;85;21710;-75
2022/11/12 11:26:24;;;;;;;15.30;9.43;;;;;;;13.56;100.00;100822.39;1686308;84;21667;-73
2022/11/12 11:29:22;;;;;;;14.28;9.68;;;;;;;13.44;100.00;100822.59;1688150;83;21049;-73
2022/11/12 11:32:27;;;;;;;16.40;9.90;;;;;;;13.25;100.00;100823.30;1682557;83;21434;-74
2022/11/12 11:35:53;;;;;;;14.20;9.65;;;;;;;13.09;100.00;100825.08;1687602;83;20946;-74
2022/11/12 11:38:50;;;;;;;15.03;8.90;;;;;;;12.95;100.00;100827.41;1688974;83;21117;-75
2022/11/12 11:41:55;;;;;;;17.23;10.43;;;;;;;12.85;100.00;100826.50;1690534;84;20949;-74
2022/11/12 11:44:47;;;;;;;19.00;10.40;;;;;;;12.84;100.00;100828.94;1687306;84;21070;-74
2022/11/12 11:47:49;;;;;;;15.30;11.03;;;;;;;12.77;100.00;100833.25;1687162;84;21007;-74
2022/11/12 11:50:36;;;;;;;16.65;10.70;;;;;;;12.64;100.00;100830.13;1688509;84;21455;-76
2022/11/12 11:53:42;;;;;;;17.10;10.80;;;;;;;12.52;100.00;100841.74;1690689;85;21573;-76
2022/11/12 11:56:36;;;;;;;16.57;10.82;;;;;;;12.44;100.00;100828.83;1633762;84;21027;-74
2022/11/12 11:59:32;;;;;;;14.65;10.48;;;;;;;12.34;100.00;100822.44;1688457;83;21073;-76
2022/11/12 12:02:31;;;;;;;15.88;10.38;;;;;;;12.30;100.00;100833.05;1687763;83;20990;-75
2022/11/12 12:05:42;;;;;;;14.30;10.35;;;;;;;12.39;100.00;100826.61;1694101;83;20951;-75
2022/11/12 12:08:45;;;;;;;15.58;10.55;;;;;;;12.55;100.00;100824.83;1625321;86;21111;-74
2022/11/12 12:11:53;;;;;;;17.98;10.70;;;;;;;12.67;100.00;100828.23;1688725;84;21430;-74
2022/11/12 12:15:16;;;;;;;15.32;9.65;;;;;;;12.81;100.00;100820.73;1688951;83;21057;-73
2022/11/12 12:18:21;;;;;;;15.18;9.90;;;;;;;12.95;100.00;100815.11;1684102;85;21013;-73
2022/11/12 12:21:16;;;;;;;14.68;9.70;;;;;;;12.97;100.00;100811.55;1690156;84;21456;-71
2022/11/12 12:24:17;;;;;;;14.18;10.30;;;;;;;12.86;100.00;100809.82;1689081;83;21063;-74
2022/11/12 12:27:10;;;;;;;14.23;9.65;;;;;;;12.71;100.00;100806.16;1686484;84;21562;-74
2022/11/12 12:30:06;;;;;;;16.07;9.60;;;;;;;12.67;100.00;100811.85;1690738;84;21083;-74
2022/11/12 12:33:05;;;;;;;17.10;10.20;;;;;;;12.62;100.00;100804.96;1675407;83;20986;-74
2022/11/12 12:36:06;;;;;;;17.85;10.85;;;;;;;12.53;100.00;100810.63;1682977;85;21039;-74
2022/11/12 12:39:13;;;;;;;14.78;9.63;;;;;;;12.48;100.00;100806.76;1689980;84;21145;-74
2022/11/12 12:42:17;;;;;;;15.35;9.95;;;;;;;12.50;100.00;100806.52;1690559;85;21009;-74
2022/11/12 12:45:25;;;;;;;14.05;9.48;;;;;;;12.52;100.00;100804.88;1688186;83;21114;-74
2022/11/12 12:48:18;;;;;;;13.55;8.98;;;;;;;12.44;100.00;100806.16;1686671;83;21092;-74
2022/11/12 12:51:06;;;;;;;18.77;10.32;;;;;;;12.36;100.00;100810.74;1688578;84;21080;-74
2022/11/12 12:53:50;;;;;;;17.90;10.63;;;;;;;12.30;100.00;100805.75;1688953;85;21089;-74
2022/11/12 12:56:45;;;;;;;14.68;10.05;;;;;;;12.22;100.00;100801.31;1688639;85;21644;-73
2022/11/12 12:59:31;;;;;;;14.95;9.88;;;;;;;12.19;100.00;100814.08;1690103;84;21079;-72
2022/11/12 13:02:22;;;;;;;14.93;10.43;;;;;;;12.05;100.00;100811.46;1686889;84;21425;-73
2022/11/12 13:05:28;;;;;;;13.70;9.38;;;;;;;12.05;100.00;100802.73;1670881;85;21118;-74
2022/11/12 13:08:19;;;;;;;16.00;10.50;;;;;;;12.03;100.00;100805.45;1677746;85;21106;-74
2022/11/12 13:11:05;;;;;;;15.28;10.63;;;;;;;11.88;100.00;100800.09;1678140;85;21043;-73
2022/11/12 13:13:49;;;;;;;13.65;9.28;;;;;;;11.81;100.00;100813.64;1637223;85;21607;-73
2022/11/12 13:16:53;;;;;;;14.07;10.08;;;;;;;11.78;100.00;100805.44;1679083;85;21090;-74
2022/11/12 13:19:58;;;;;;;16.05;10.98;;;;;;;11.74;100.00;100813.83;1679084;85;21740;-74
2022/11/12 13:22:48;;;;;;;32.13;20.48;;;;;;;11.66;100.00;100820.22;1676121;84;21041;-74
2022/11/12 13:25:34;;;;;;;21.17;15.58;;;;;;;11.58;100.00;100824.23;1676385;85;21580;-74
2022/11/12 13:28:19;;;;;;;37.28;24.43;;;;;;;11.59;100.00;100821.77;1678158;85;21650;-75
2022/11/12 13:31:07;;;;;;;29.50;22.37;;;;;;;11.55;100.00;100823.34;1674204;85;22185;-74
2022/11/12 13:33:52;;;;;;;19.00;13.45;;;;;;;11.44;100.00;100827.84;1677226;85;21667;-74
2022/11/12 13:36:38;;;;;;;13.95;10.68;;;;;;;11.42;100.00;100830.00;1676601;85;21034;-74
2022/11/12 13:39:23;;;;;;;15.75;10.88;;;;;;;11.44;100.00;100826.47;1678779;85;21058;-74
2022/11/12 13:45:22;;;;;;;73.87;52.58;;;;;;;11.28;100.00;100816.44;1653747;85;21137;-73
2022/11/12 13:48:30;;;;;;;68.75;50.10;;;;;;;11.25;100.00;100816.11;1678940;85;21057;-74
2022/11/12 13:51:40;;;;;;;80.45;57.33;;;;;;;11.25;100.00;100814.22;1673676;85;22380;-74
2022/11/12 13:54:34;;;;;;;53.40;36.25;;;;;;;11.17;100.00;100806.45;1651795;85;21113;-74
2022/11/12 13:57:28;;;;;;;39.48;26.73;;;;;;;11.09;100.00;100817.77;1675028;85;21042;-74
2022/11/12 14:00:20;;;;;;;31.25;22.52;;;;;;;11.12;100.00;100817.30;1678273;85;21091;-74
2022/11/12 14:03:10;;;;;;;36.75;25.25;;;;;;;11.08;100.00;100824.31;1678873;84;21102;-73
2022/11/12 14:05:55;;;;;;;41.18;28.73;;;;;;;10.98;100.00;100824.95;1677403;85;21054;-74
2022/11/12 14:09:04;;;;;;;23.18;17.90;;;;;;;10.98;100.00;100814.62;1677979;85;21164;-74
2022/11/12 14:12:15;;;;;;;18.48;14.20;;;;;;;10.99;100.00;100827.98;1679705;85;21058;-75
2022/11/12 14:15:37;;;;;;;15.72;12.18;;;;;;;10.93;100.00;100822.70;1677364;84;21091;-74
2022/11/12 14:18:36;;;;;;;18.82;14.13;;;;;;;10.87;100.00;100829.98;1655496;84;21080;-74
2022/11/12 14:21:21;;;;;;;18.32;13.68;;;;;;;10.88;100.00;100822.60;1680626;85;21034;-74
2022/11/12 14:24:09;;;;;;;22.50;15.98;;;;;;;10.85;100.00;100817.66;1679930;84;21081;-75
2022/11/12 14:26:55;;;;;;;14.65;11.20;;;;;;;10.77;100.00;100820.25;1677704;84;21553;-74
2022/11/12 14:29:40;;;;;;;13.62;10.08;;;;;;;10.77;100.00;100819.45;1644594;86;21111;-74
2022/11/12 14:32:24;;;;;;;9.93;7.47;;;;;;;10.77;100.00;100814.00;1673780;84;21037;-74
2022/11/12 14:35:33;;;;;;;11.68;8.53;;;;;;;10.71;100.00;100808.98;1686934;84;21553;-73